createdAt,value
2017-08-03T00:00:59.035Z,18.70
2017-08-03T00:03:26.536Z,18.70
2017-08-03T00:05:54.002Z,18.70
2017-08-03T00:08:21.462Z,18.60
2017-08-03T00:10:49.219Z,18.70
2017-08-03T00:13:16.675Z,18.70
2017-08-03T00:15:44.129Z,18.60
2017-08-03T00:18:11.631Z,18.60
2017-08-03T00:20:39.102Z,18.60
2017-08-03T00:23:06.554Z,18.60
2017-08-03T00:25:34.022Z,18.60
2017-08-03T00:28:01.482Z,18.70
2017-08-03T00:30:28.938Z,18.60
2017-08-03T00:32:56.527Z,18.60
2017-08-03T00:35:23.988Z,18.60
2017-08-03T00:37:51.854Z,18.60
2017-08-03T00:40:19.356Z,18.60
2017-08-03T00:42:46.815Z,18.60
2017-08-03T00:45:14.287Z,18.60
2017-08-03T00:47:41.763Z,18.70
2017-08-03T00:50:09.218Z,18.70
2017-08-03T00:52:36.678Z,18.60
2017-08-03T00:55:04.327Z,18.70
2017-08-03T00:57:31.791Z,18.50
2017-08-03T00:59:59.652Z,18.40
2017-08-03T01:02:27.216Z,18.40
2017-08-03T01:04:54.670Z,18.40
2017-08-03T01:07:22.131Z,18.40
2017-08-03T01:09:50.016Z,18.40
2017-08-03T01:12:17.490Z,18.40
2017-08-03T01:14:44.960Z,18.30
2017-08-03T01:17:12.655Z,18.20
2017-08-03T01:19:40.120Z,18.20
2017-08-03T01:22:07.571Z,18.30
2017-08-03T01:24:35.326Z,18.30
2017-08-03T01:27:02.783Z,18.30
2017-08-03T01:29:30.234Z,18.30
2017-08-03T01:31:57.959Z,18.20
2017-08-03T01:34:25.415Z,18.20
2017-08-03T01:36:52.871Z,18.20
2017-08-03T01:39:20.356Z,18.10
2017-08-03T01:41:47.823Z,18.10
2017-08-03T01:44:15.300Z,18.10
2017-08-03T01:46:46.324Z,18.10
2017-08-03T01:49:14.184Z,17.90
2017-08-03T01:51:42.047Z,18.00
2017-08-03T01:54:09.538Z,18.00
2017-08-03T01:56:37.005Z,17.90
2017-08-03T01:59:04.465Z,17.80
2017-08-03T02:01:31.952Z,17.80
2017-08-03T02:03:59.425Z,17.90
2017-08-03T02:06:26.878Z,17.80
2017-08-03T02:08:54.379Z,17.80
2017-08-03T02:11:21.840Z,17.80
2017-08-03T02:13:49.308Z,17.90
2017-08-03T02:16:17.101Z,17.90
2017-08-03T02:18:45.387Z,17.90
2017-08-03T02:21:12.847Z,17.90
2017-08-03T02:23:40.352Z,17.80
2017-08-03T02:26:07.811Z,17.80
2017-08-03T02:28:35.266Z,17.70
2017-08-03T02:31:02.778Z,17.70
2017-08-03T02:33:30.235Z,17.50
2017-08-03T02:35:57.687Z,17.50
2017-08-03T02:38:25.571Z,17.50
2017-08-03T02:40:53.036Z,17.50
2017-08-03T02:43:20.503Z,17.40
2017-08-03T02:45:47.999Z,17.50
2017-08-03T02:48:15.459Z,17.50
2017-08-03T02:50:42.919Z,17.40
2017-08-03T02:53:10.674Z,17.30
2017-08-03T02:55:38.139Z,17.30
2017-08-03T02:58:06.009Z,17.20
2017-08-03T03:00:33.887Z,17.20
2017-08-03T03:03:01.351Z,17.20
2017-08-03T03:05:28.807Z,17.20
2017-08-03T03:07:56.307Z,17.20
2017-08-03T03:10:23.767Z,17.30
2017-08-03T03:12:51.223Z,17.20
2017-08-03T03:15:18.891Z,17.20
2017-08-03T03:17:46.357Z,17.20
2017-08-03T03:20:13.811Z,17.10
2017-08-03T03:22:41.721Z,17.10
2017-08-03T03:25:09.184Z,17.20
2017-08-03T03:27:36.658Z,17.10
2017-08-03T03:30:04.232Z,17.00
2017-08-03T03:32:31.694Z,17.10
2017-08-03T03:34:59.150Z,17.10
2017-08-03T03:37:26.812Z,17.10
2017-08-03T03:39:54.271Z,17.20
2017-08-03T03:42:21.741Z,17.00
2017-08-03T03:44:49.719Z,17.00
2017-08-03T03:47:17.193Z,17.10
2017-08-03T03:49:44.646Z,16.80
2017-08-03T03:52:12.265Z,16.80
2017-08-03T03:54:39.724Z,16.90
2017-08-03T03:57:07.196Z,17.00
2017-08-03T03:59:34.691Z,17.00
2017-08-03T04:02:02.159Z,16.90
2017-08-03T04:04:29.618Z,16.90
2017-08-03T04:06:57.295Z,16.90
2017-08-03T04:09:24.764Z,16.90
2017-08-03T04:11:52.622Z,16.90
2017-08-03T04:14:20.114Z,16.90
2017-08-03T04:16:47.570Z,17.00
2017-08-03T04:19:15.031Z,16.90
2017-08-03T04:21:42.515Z,16.80
2017-08-03T04:24:09.974Z,16.80
2017-08-03T04:26:37.435Z,16.80
2017-08-03T04:29:04.952Z,16.80
2017-08-03T04:31:32.408Z,16.80
2017-08-03T04:33:59.871Z,16.90
2017-08-03T04:36:27.385Z,16.90
2017-08-03T04:38:55.252Z,16.80
2017-08-03T04:41:23.107Z,16.80
2017-08-03T04:43:50.763Z,16.90
2017-08-03T04:46:18.215Z,16.80
2017-08-03T04:48:45.679Z,16.90
2017-08-03T04:51:13.570Z,16.90
2017-08-03T04:53:41.039Z,16.90
2017-08-03T04:56:08.507Z,16.90
2017-08-03T04:58:36.206Z,17.00
2017-08-03T05:01:03.671Z,16.90
2017-08-03T05:03:31.132Z,17.00
2017-08-03T05:05:59.189Z,16.80
2017-08-03T05:08:26.661Z,16.80
2017-08-03T05:10:54.516Z,16.70
2017-08-03T05:13:22.888Z,16.80
2017-08-03T05:15:50.344Z,16.80
2017-08-03T05:18:18.211Z,16.70
2017-08-03T05:20:46.104Z,16.80
2017-08-03T05:23:13.564Z,16.80
2017-08-03T05:25:41.024Z,16.80
2017-08-03T05:28:08.766Z,16.90
2017-08-03T05:30:36.230Z,16.90
2017-08-03T05:33:03.697Z,16.90
2017-08-03T05:35:31.416Z,16.90
2017-08-03T05:37:58.883Z,16.90
2017-08-03T05:40:26.730Z,17.00
2017-08-03T05:42:54.401Z,17.00
2017-08-03T05:45:22.278Z,17.00
2017-08-03T05:47:49.756Z,17.10
2017-08-03T05:50:17.246Z,17.10
2017-08-03T05:52:44.715Z,17.10
2017-08-03T05:55:12.179Z,17.20
2017-08-03T05:57:40.051Z,17.20
2017-08-03T06:00:07.506Z,17.20
2017-08-03T06:02:34.970Z,17.30
2017-08-03T06:05:02.455Z,17.40
2017-08-03T06:07:29.920Z,17.40
2017-08-03T06:09:57.387Z,17.40
2017-08-03T06:12:24.967Z,17.40
2017-08-03T06:14:52.425Z,17.50
2017-08-03T06:17:19.891Z,17.50
2017-08-03T06:19:47.651Z,17.40
2017-08-03T06:22:15.114Z,17.40
2017-08-03T06:24:42.574Z,17.40
2017-08-03T06:27:10.996Z,17.50
2017-08-03T06:29:38.454Z,17.50
2017-08-03T06:32:05.915Z,17.40
2017-08-03T06:34:33.558Z,17.50
2017-08-03T06:37:01.027Z,17.50
2017-08-03T06:39:28.491Z,17.40
2017-08-03T06:41:55.983Z,17.40
2017-08-03T06:44:23.891Z,17.40
2017-08-03T06:46:51.347Z,17.40
2017-08-03T06:49:18.815Z,17.40
2017-08-03T06:51:46.317Z,17.50
2017-08-03T06:54:13.771Z,17.40
2017-08-03T06:56:41.228Z,17.40
2017-08-03T06:59:09.396Z,17.50
2017-08-03T07:01:37.265Z,17.30
2017-08-03T07:04:04.719Z,17.40
2017-08-03T07:06:32.289Z,17.50
2017-08-03T07:09:00.142Z,17.50
2017-08-03T07:11:28.012Z,17.50
2017-08-03T07:13:55.911Z,17.60
2017-08-03T07:16:23.382Z,17.60
2017-08-03T07:18:50.839Z,17.60
2017-08-03T07:21:18.642Z,17.60
2017-08-03T07:23:46.516Z,17.60
2017-08-03T07:26:14.366Z,17.60
2017-08-03T07:28:42.131Z,17.60
2017-08-03T07:31:09.590Z,17.60
2017-08-03T07:33:37.050Z,17.60
2017-08-03T07:36:04.664Z,17.70
2017-08-03T07:38:32.128Z,17.80
2017-08-03T07:40:59.597Z,17.80
2017-08-03T07:43:27.263Z,17.90
2017-08-03T07:45:54.723Z,17.90
2017-08-03T07:48:22.191Z,17.90
2017-08-03T07:50:50.091Z,18.00
2017-08-03T07:53:17.555Z,18.00
2017-08-03T07:55:45.059Z,18.10
2017-08-03T07:58:12.554Z,18.30
2017-08-03T08:00:40.023Z,18.20
2017-08-03T08:03:07.486Z,18.10
2017-08-03T08:05:34.986Z,18.10
2017-08-03T08:08:02.443Z,17.90
2017-08-03T08:10:30.299Z,18.10
2017-08-03T08:12:58.062Z,18.10
2017-08-03T08:15:26.259Z,18.10
2017-08-03T08:17:53.735Z,18.10
2017-08-03T08:20:21.230Z,18.20
2017-08-03T08:22:48.696Z,18.40
2017-08-03T08:25:16.155Z,18.60
2017-08-03T08:27:43.666Z,18.60
2017-08-03T08:30:11.168Z,18.60
2017-08-03T08:32:38.632Z,18.90
2017-08-03T08:35:06.388Z,19.00
2017-08-03T08:37:34.001Z,19.00
2017-08-03T08:40:01.460Z,19.20
2017-08-03T08:42:29.287Z,19.40
2017-08-03T08:44:57.139Z,19.20
2017-08-03T08:47:24.996Z,19.20
2017-08-03T08:49:52.515Z,19.20
2017-08-03T08:52:19.965Z,19.30
2017-08-03T08:54:47.430Z,19.40
2017-08-03T08:57:15.121Z,19.70
2017-08-03T08:59:42.982Z,20.30
2017-08-03T09:02:10.447Z,20.30
2017-08-03T09:04:38.511Z,20.60
2017-08-03T09:07:05.971Z,20.60
2017-08-03T09:09:33.431Z,20.80
2017-08-03T09:12:00.898Z,20.70
2017-08-03T09:14:28.355Z,20.80
2017-08-03T09:16:55.811Z,20.90
2017-08-03T09:19:23.296Z,21.20
2017-08-03T09:21:50.749Z,21.30
2017-08-03T09:24:18.203Z,21.50
2017-08-03T09:26:45.695Z,21.50
2017-08-03T09:29:13.151Z,21.50
2017-08-03T09:31:40.606Z,21.40
2017-08-03T09:34:08.098Z,21.80
2017-08-03T09:36:35.566Z,21.70
2017-08-03T09:39:03.034Z,21.60
2017-08-03T09:41:30.524Z,21.60
2017-08-03T09:43:57.983Z,22.10
2017-08-03T09:46:25.444Z,22.40
2017-08-03T09:48:53.134Z,22.00
2017-08-03T09:51:20.984Z,22.30
2017-08-03T09:53:48.838Z,22.40
2017-08-03T09:56:16.319Z,22.40
2017-08-03T09:58:43.772Z,22.60
2017-08-03T10:01:11.619Z,22.30
2017-08-03T10:03:39.110Z,22.30
2017-08-03T10:06:06.580Z,22.50
2017-08-03T10:08:34.051Z,22.40
2017-08-03T10:11:01.531Z,22.50
2017-08-03T10:13:29.000Z,22.80
2017-08-03T10:15:56.854Z,22.70
2017-08-03T10:18:24.340Z,22.70
2017-08-03T10:20:52.195Z,22.70
2017-08-03T10:23:20.046Z,22.80
2017-08-03T10:25:47.523Z,22.80
2017-08-03T10:28:14.983Z,22.80
2017-08-03T10:30:42.439Z,22.80
2017-08-03T10:33:10.202Z,23.20
2017-08-03T10:35:37.684Z,23.40
2017-08-03T10:38:05.139Z,23.60
2017-08-03T10:40:32.953Z,23.90
2017-08-03T10:43:00.406Z,23.70
2017-08-03T10:45:28.264Z,23.90
2017-08-03T10:47:55.742Z,23.90
2017-08-03T10:50:23.211Z,24.00
2017-08-03T10:52:50.788Z,24.10
2017-08-03T10:55:18.520Z,24.20
2017-08-03T10:57:45.994Z,24.10
2017-08-03T11:00:13.440Z,24.10
2017-08-03T11:02:41.008Z,24.10
2017-08-03T11:05:08.459Z,24.00
2017-08-03T11:07:35.910Z,24.00
2017-08-03T11:10:03.396Z,24.20
2017-08-03T11:12:30.852Z,24.00
2017-08-03T11:14:58.312Z,24.20
2017-08-03T11:17:25.804Z,24.00
2017-08-03T11:19:53.655Z,24.40
2017-08-03T11:22:21.112Z,24.40
2017-08-03T11:24:48.979Z,24.70
2017-08-03T11:27:16.442Z,24.80
2017-08-03T11:29:43.904Z,25.00
2017-08-03T11:32:11.653Z,25.20
2017-08-03T11:34:39.107Z,25.40
2017-08-03T11:37:06.574Z,25.60
2017-08-03T11:39:34.052Z,25.60
2017-08-03T11:42:01.522Z,25.10
2017-08-03T11:44:28.981Z,25.60
2017-08-03T11:46:56.686Z,26.80
2017-08-03T11:49:24.139Z,26.60
2017-08-03T11:51:51.603Z,26.50
2017-08-03T11:54:19.358Z,25.40
2017-08-03T11:56:46.824Z,25.30
2017-08-03T11:59:14.680Z,24.60
2017-08-03T12:01:42.252Z,24.60
2017-08-03T12:04:10.104Z,24.40
2017-08-03T12:06:37.559Z,24.40
2017-08-03T12:09:05.055Z,24.50
2017-08-03T12:11:32.542Z,26.10
2017-08-03T12:14:00.015Z,27.50
2017-08-03T12:16:27.790Z,27.80
2017-08-03T12:18:55.243Z,27.50
2017-08-03T12:21:22.721Z,27.90
2017-08-03T12:23:50.687Z,28.40
2017-08-03T12:26:18.539Z,26.10
2017-08-03T12:28:46.396Z,25.30
2017-08-03T12:31:13.883Z,25.30
2017-08-03T12:33:41.336Z,25.10
2017-08-03T12:36:08.801Z,24.80
2017-08-03T12:38:37.443Z,24.60
2017-08-03T12:41:04.895Z,24.60
2017-08-03T12:43:32.374Z,24.60
2017-08-03T12:46:00.244Z,24.60
2017-08-03T12:48:28.091Z,24.60
2017-08-03T12:50:55.943Z,24.40
2017-08-03T12:53:23.663Z,24.50
2017-08-03T12:55:51.120Z,24.70
2017-08-03T12:58:18.579Z,24.70
2017-08-03T13:00:46.066Z,24.50
2017-08-03T13:03:13.529Z,24.30
2017-08-03T13:05:40.991Z,24.30
2017-08-03T13:08:08.563Z,24.20
2017-08-03T13:10:36.410Z,24.00
2017-08-03T13:13:03.863Z,24.00
2017-08-03T13:15:31.344Z,23.90
2017-08-03T13:17:58.807Z,23.90
2017-08-03T13:20:26.266Z,24.00
2017-08-03T13:22:53.743Z,25.70
2017-08-03T13:25:21.204Z,26.00
2017-08-03T13:27:48.671Z,24.70
2017-08-03T13:30:16.152Z,25.70
2017-08-03T13:32:44.019Z,27.30
2017-08-03T13:35:11.471Z,27.30
2017-08-03T13:37:39.136Z,26.10
2017-08-03T13:40:06.598Z,26.50
2017-08-03T13:42:34.052Z,25.70
2017-08-03T13:45:01.696Z,26.60
2017-08-03T13:47:29.155Z,25.50
2017-08-03T13:49:56.618Z,24.80
2017-08-03T13:52:24.128Z,24.70
2017-08-03T13:54:51.583Z,24.60
2017-08-03T13:57:19.039Z,23.80
2017-08-03T13:59:46.520Z,23.10
2017-08-03T14:02:13.970Z,23.00
2017-08-03T14:04:41.431Z,24.00
2017-08-03T14:07:09.171Z,27.10
2017-08-03T14:09:36.645Z,28.10
2017-08-03T14:12:04.116Z,25.30
2017-08-03T14:14:31.995Z,23.90
2017-08-03T14:16:59.459Z,23.90
2017-08-03T14:19:26.921Z,23.30
2017-08-03T14:21:54.653Z,24.30
2017-08-03T14:24:22.103Z,23.50
2017-08-03T14:26:49.567Z,23.10
2017-08-03T14:29:17.465Z,22.40
2017-08-03T14:31:45.043Z,22.40
2017-08-03T14:34:12.495Z,22.20
2017-08-03T14:36:39.983Z,22.00
2017-08-03T14:39:07.447Z,22.00
2017-08-03T14:41:34.919Z,22.00
2017-08-03T14:44:02.810Z,21.60
2017-08-03T14:46:30.270Z,21.50
2017-08-03T14:48:57.747Z,21.80
2017-08-03T14:51:25.544Z,22.10
2017-08-03T14:53:53.004Z,22.00
2017-08-03T14:56:20.461Z,22.00
2017-08-03T14:58:48.357Z,21.90
2017-08-03T15:01:15.827Z,21.90
2017-08-03T15:03:43.283Z,21.70
2017-08-03T15:06:10.768Z,21.70
2017-08-03T15:08:38.232Z,22.00
2017-08-03T15:11:05.692Z,22.60
2017-08-03T15:13:33.187Z,22.50
2017-08-03T15:16:00.643Z,22.80
2017-08-03T15:18:28.100Z,22.50
2017-08-03T15:20:55.860Z,22.70
2017-08-03T15:23:23.313Z,22.80
2017-08-03T15:25:50.768Z,22.80
2017-08-03T15:28:18.504Z,23.00
2017-08-03T15:30:46.368Z,22.70
2017-08-03T15:33:14.235Z,22.70
2017-08-03T15:35:41.738Z,22.70
2017-08-03T15:38:09.194Z,22.70
2017-08-03T15:40:36.653Z,22.50
2017-08-03T15:43:04.148Z,22.50
2017-08-03T15:45:31.606Z,22.40
2017-08-03T15:47:59.061Z,22.40
2017-08-03T15:50:26.543Z,22.30
2017-08-03T15:52:54.006Z,22.30
2017-08-03T15:55:21.456Z,22.30
2017-08-03T15:57:48.969Z,22.20
2017-08-03T16:00:16.423Z,22.30
2017-08-03T16:02:43.879Z,22.30
2017-08-03T16:05:11.669Z,22.50
2017-08-03T16:07:39.524Z,22.40
2017-08-03T16:10:06.979Z,22.40
2017-08-03T16:12:34.747Z,22.40
2017-08-03T16:15:02.614Z,22.40
2017-08-03T16:17:30.475Z,22.40
2017-08-03T16:19:57.967Z,22.40
2017-08-03T16:22:25.430Z,22.30
2017-08-03T16:24:52.889Z,22.20
2017-08-03T16:27:20.590Z,22.20
2017-08-03T16:29:48.082Z,22.00
2017-08-03T16:34:49.606Z,22.00
2017-08-03T16:37:17.079Z,22.10
2017-08-03T16:39:44.535Z,22.20
2017-08-03T16:42:12.268Z,22.10
2017-08-03T16:44:39.730Z,22.20
2017-08-03T16:47:07.198Z,22.20
2017-08-03T16:49:34.772Z,22.20
2017-08-03T16:52:02.620Z,22.30
2017-08-03T16:54:30.079Z,22.30
2017-08-03T16:56:57.711Z,22.20
2017-08-03T16:59:25.181Z,22.20
2017-08-03T17:01:52.626Z,22.10
2017-08-03T17:04:20.307Z,22.10
2017-08-03T17:06:47.771Z,22.00
2017-08-03T17:09:15.232Z,22.00
2017-08-03T17:11:42.975Z,22.00
2017-08-03T17:14:10.435Z,21.90
2017-08-03T17:16:37.890Z,21.90
2017-08-03T17:19:05.363Z,21.90
2017-08-03T17:21:33.221Z,22.00
2017-08-03T17:24:00.675Z,22.00
2017-08-03T17:26:28.159Z,21.80
2017-08-03T17:28:55.631Z,21.90
2017-08-03T17:31:23.092Z,21.80
2017-08-03T17:33:50.570Z,21.80
2017-08-03T17:36:18.028Z,21.70
2017-08-03T17:38:45.476Z,21.60
2017-08-03T17:41:13.157Z,21.60
2017-08-03T17:43:40.612Z,21.50
2017-08-03T17:46:08.079Z,21.50
2017-08-03T17:48:35.555Z,21.50
2017-08-03T17:51:03.010Z,21.50
2017-08-03T17:53:30.476Z,21.40
2017-08-03T17:55:58.301Z,21.30
2017-08-03T17:58:25.753Z,21.30
2017-08-03T18:00:53.208Z,21.30
2017-08-03T18:03:20.695Z,21.20
2017-08-03T18:05:48.154Z,21.20
2017-08-03T18:08:15.619Z,21.10
2017-08-03T18:10:43.095Z,21.10
2017-08-03T18:13:10.552Z,21.10
2017-08-03T18:15:38.013Z,21.00
2017-08-03T18:18:05.496Z,21.00
2017-08-03T18:20:32.951Z,21.00
2017-08-03T18:23:00.419Z,21.00
2017-08-03T18:25:27.907Z,20.90
2017-08-03T18:27:55.371Z,20.80
2017-08-03T18:30:22.825Z,20.70
2017-08-03T18:32:50.305Z,20.80
2017-08-03T18:35:17.759Z,20.60
2017-08-03T18:37:45.241Z,20.60
2017-08-03T18:40:12.891Z,20.60
2017-08-03T18:42:40.353Z,20.50
2017-08-03T18:45:07.854Z,20.50
2017-08-03T18:47:35.364Z,20.40
2017-08-03T18:50:02.836Z,20.40
2017-08-03T18:52:30.313Z,20.40
2017-08-03T18:54:57.808Z,20.30
2017-08-03T18:57:25.316Z,20.30
2017-08-03T18:59:52.795Z,20.30
2017-08-03T19:02:20.351Z,20.20
2017-08-03T19:04:47.966Z,20.20
2017-08-03T19:07:15.963Z,20.20
2017-08-03T19:09:43.909Z,20.20
2017-08-03T19:12:11.632Z,20.10
2017-08-03T19:14:39.290Z,20.10
2017-08-03T19:19:41.005Z,20.10
2017-08-03T19:22:09.225Z,20.10
2017-08-03T19:24:37.010Z,20.10
2017-08-03T19:27:05.250Z,20.10
2017-08-03T19:29:33.174Z,20.10
2017-08-03T19:32:01.029Z,20.10
2017-08-03T19:34:28.854Z,20.20
2017-08-03T19:36:57.006Z,20.10
2017-08-03T19:39:24.752Z,20.20
2017-08-03T19:41:52.543Z,20.10
2017-08-03T19:44:20.669Z,20.10
2017-08-03T19:46:48.535Z,20.10
2017-08-03T19:49:16.249Z,20.10
2017-08-03T19:51:44.121Z,20.10
2017-08-03T19:54:11.862Z,20.00
2017-08-03T19:56:39.724Z,20.10
2017-08-03T19:59:07.801Z,20.00
2017-08-03T20:01:35.611Z,20.00
2017-08-03T20:04:03.428Z,20.00
2017-08-03T20:06:31.609Z,20.00
2017-08-03T20:09:10.422Z,19.90
2017-08-03T20:11:38.921Z,20.00
2017-08-03T20:14:06.935Z,20.00
2017-08-03T20:16:34.597Z,20.10
2017-08-03T20:19:02.809Z,20.10
2017-08-03T20:21:30.654Z,20.00
2017-08-03T20:23:58.513Z,19.90
2017-08-03T20:26:26.412Z,19.90
2017-08-03T20:28:54.162Z,19.90
2017-08-03T20:31:21.873Z,19.90
2017-08-03T20:33:49.754Z,20.00
2017-08-03T20:36:17.497Z,20.00
2017-08-03T20:38:45.066Z,19.90
2017-08-03T20:41:13.103Z,20.00
2017-08-03T20:43:40.661Z,20.00
2017-08-03T20:46:08.302Z,20.00
2017-08-03T20:48:36.065Z,20.00
2017-08-03T20:51:03.606Z,19.90
2017-08-03T20:53:31.201Z,19.90
2017-08-03T20:55:58.835Z,19.90
2017-08-03T20:58:26.392Z,19.90
2017-08-03T21:00:53.908Z,19.90
2017-08-03T21:03:22.172Z,19.80
2017-08-03T21:05:50.050Z,19.80
2017-08-03T21:08:17.555Z,19.80
2017-08-03T21:10:45.062Z,19.80
2017-08-03T21:13:12.935Z,19.70
2017-08-03T21:15:40.395Z,19.70
2017-08-03T21:18:07.896Z,19.70
2017-08-03T21:20:35.352Z,19.70
2017-08-03T21:23:02.807Z,19.60
2017-08-03T21:25:30.291Z,19.60
2017-08-03T21:27:57.750Z,19.60
2017-08-03T21:30:25.597Z,19.50
2017-08-03T21:32:53.092Z,19.50
2017-08-03T21:35:20.547Z,19.50
2017-08-03T21:37:48.008Z,19.50
2017-08-03T21:40:15.762Z,19.50
2017-08-03T21:42:43.220Z,19.50
2017-08-03T21:45:10.676Z,19.50
2017-08-03T21:47:38.252Z,19.50
2017-08-03T21:50:05.720Z,19.40
2017-08-03T21:52:33.183Z,19.40
2017-08-03T21:55:00.674Z,19.40
2017-08-03T21:57:28.140Z,19.40
2017-08-03T21:59:55.599Z,19.40
2017-08-03T22:02:23.343Z,19.30
2017-08-03T22:04:51.197Z,19.40
2017-08-03T22:07:18.657Z,19.40
2017-08-03T22:09:46.413Z,19.30
2017-08-03T22:12:13.867Z,19.30
2017-08-03T22:14:41.328Z,19.30
2017-08-03T22:17:08.824Z,19.20
2017-08-03T22:19:36.386Z,19.10
2017-08-03T22:22:03.845Z,19.00
2017-08-03T22:24:31.324Z,19.00
2017-08-03T22:26:58.783Z,18.90
2017-08-03T22:29:26.244Z,19.00
2017-08-03T22:31:53.918Z,19.00
2017-08-03T22:34:21.379Z,19.00
2017-08-03T22:36:49.236Z,19.10
2017-08-03T22:39:16.955Z,19.10
2017-08-03T22:41:44.415Z,19.20
2017-08-03T22:44:11.877Z,19.10
2017-08-03T22:46:39.367Z,19.20
2017-08-03T22:49:07.231Z,19.10
2017-08-03T22:51:34.684Z,19.10
2017-08-03T22:54:02.355Z,19.10
2017-08-03T22:56:30.204Z,18.90
2017-08-03T22:58:57.654Z,18.90
2017-08-03T23:01:25.427Z,18.90
2017-08-03T23:03:52.883Z,18.80
2017-08-03T23:06:20.343Z,18.80
2017-08-03T23:08:47.839Z,18.70
2017-08-03T23:11:15.291Z,18.70
2017-08-03T23:13:42.744Z,18.60
2017-08-03T23:16:10.219Z,18.60
2017-08-03T23:18:37.676Z,18.60
2017-08-03T23:21:05.135Z,18.60
2017-08-03T23:23:32.647Z,18.50
2017-08-03T23:26:00.102Z,18.50
2017-08-03T23:28:27.563Z,18.40
2017-08-03T23:30:55.062Z,18.40
2017-08-03T23:33:22.531Z,18.30
2017-08-03T23:35:49.983Z,18.20
2017-08-03T23:40:51.393Z,18.20
2017-08-03T23:43:18.888Z,18.10
2017-08-03T23:45:46.338Z,18.10
2017-08-03T23:48:13.806Z,18.10
2017-08-03T23:50:41.275Z,18.10
2017-08-03T23:53:08.727Z,18.00
2017-08-03T23:55:36.203Z,18.00
2017-08-03T23:58:04.236Z,17.90
